sensor_id;sensor_type;location;lat;lon;timestamp;pressure;altitude;pressure_sealevel;temperature;humidity
6445;BME280;64733;51.424;5.484;2022-11-04T06:57:42;100288.00;;;17.55;70.94
6445;BME280;64733;51.424;5.484;2022-11-04T07:00:09;100283.63;;;17.54;71.30
6445;BME280;64733;51.424;5.484;2022-11-04T07:02:36;100293.78;;;17.52;71.44
6445;BME280;64733;51.424;5.484;2022-11-04T07:05:04;100290.03;;;17.53;71.55
6445;BME280;64733;51.424;5.484;2022-11-04T07:07:31;100287.53;;;17.51;71.60
6445;BME280;64733;51.424;5.484;2022-11-04T07:09:58;100268.16;;;17.40;71.46
6445;BME280;64733;51.424;5.484;2022-11-04T07:12:25;100299.38;;;17.50;71.20
6445;BME280;64733;51.424;5.484;2022-11-04T07:14:55;100307.31;;;17.52;71.23
6445;BME280;64733;51.424;5.484;2022-11-04T07:17:22;100310.22;;;17.50;71.05
6445;BME280;64733;51.424;5.484;2022-11-04T07:19:48;100312.25;;;17.48;70.92
6445;BME280;64733;51.424;5.484;2022-11-04T07:22:15;100315.63;;;17.50;70.95
6445;BME280;64733;51.424;5.484;2022-11-04T07:24:42;100316.66;;;17.49;70.96
6445;BME280;64733;51.424;5.484;2022-11-04T07:27:09;100314.13;;;17.48;70.90
6445;BME280;64733;51.424;5.484;2022-11-04T07:29:35;100315.16;;;17.47;70.90
6445;BME280;64733;51.424;5.484;2022-11-04T07:32:04;100316.13;;;17.46;70.75
6445;BME280;64733;51.424;5.484;2022-11-04T07:34:31;100327.66;;;17.48;70.88
6445;BME280;64733;51.424;5.484;2022-11-04T07:36:58;100326.00;;;17.47;70.95
6445;BME280;64733;51.424;5.484;2022-11-04T07:39:24;100329.53;;;17.47;71.35
6445;BME280;64733;51.424;5.484;2022-11-04T07:41:51;100332.22;;;17.47;71.46
6445;BME280;64733;51.424;5.484;2022-11-04T07:44:18;100334.44;;;17.44;71.47
6445;BME280;64733;51.424;5.484;2022-11-04T07:46:47;100334.75;;;17.49;71.95
6445;BME280;64733;51.424;5.484;2022-11-04T07:49:15;100348.13;;;17.50;71.90
6445;BME280;64733;51.424;5.484;2022-11-04T07:51:42;100338.13;;;17.51;72.11
6445;BME280;64733;51.424;5.484;2022-11-04T07:54:09;100351.66;;;17.51;72.14
6445;BME280;64733;51.424;5.484;2022-11-04T07:56:35;100357.94;;;17.51;72.24
6445;BME280;64733;51.424;5.484;2022-11-04T07:59:04;100358.97;;;17.50;72.25
6445;BME280;64733;51.424;5.484;2022-11-04T08:01:31;100360.44;;;17.53;72.34
6445;BME280;64733;51.424;5.484;2022-11-04T08:03:58;100357.75;;;17.53;72.40
6445;BME280;64733;51.424;5.484;2022-11-04T08:06:26;100364.88;;;17.54;72.59
6445;BME280;64733;51.424;5.484;2022-11-04T08:08:53;100362.31;;;17.52;72.53
6445;BME280;64733;51.424;5.484;2022-11-04T08:11:22;100364.00;;;17.53;72.38
6445;BME280;64733;51.424;5.484;2022-11-04T08:13:49;100360.44;;;17.53;72.40
6445;BME280;64733;51.424;5.484;2022-11-04T08:16:18;100365.19;;;17.51;71.74
6445;BME280;64733;51.424;5.484;2022-11-04T08:18:47;100379.78;;;17.50;71.67
6445;BME280;64733;51.424;5.484;2022-11-04T08:21:27;100373.69;;;17.48;72.04
6445;BME280;64733;51.424;5.484;2022-11-04T08:23:55;100388.09;;;17.48;72.19
6445;BME280;64733;51.424;5.484;2022-11-04T08:26:22;100392.66;;;17.48;71.99
6445;BME280;64733;51.424;5.484;2022-11-04T08:28:49;100390.63;;;17.42;70.96
6445;BME280;64733;51.424;5.484;2022-11-04T08:31:18;100374.44;;;17.34;69.36
6445;BME280;64733;51.424;5.484;2022-11-04T08:33:46;100398.59;;;17.43;70.96
6445;BME280;64733;51.424;5.484;2022-11-04T08:36:23;100394.66;;;17.46;71.47
6445;BME280;64733;51.424;5.484;2022-11-04T08:38:52;100397.22;;;17.47;71.69
6445;BME280;64733;51.424;5.484;2022-11-04T08:41:21;100401.44;;;17.50;71.64
6445;BME280;64733;51.424;5.484;2022-11-04T08:43:48;100398.56;;;17.51;71.81
6445;BME280;64733;51.424;5.484;2022-11-04T08:46:15;100406.69;;;17.51;71.46
6445;BME280;64733;51.424;5.484;2022-11-04T08:48:43;100406.50;;;17.53;71.68
6445;BME280;64733;51.424;5.484;2022-11-04T08:51:13;100408.53;;;17.51;71.48
6445;BME280;64733;51.424;5.484;2022-11-04T08:53:40;100411.25;;;17.51;72.03
6445;BME280;64733;51.424;5.484;2022-11-04T08:56:14;100403.50;;;17.48;71.56
6445;BME280;64733;51.424;5.484;2022-11-04T08:58:41;100413.28;;;17.49;71.13
6445;BME280;64733;51.424;5.484;2022-11-04T09:01:08;100418.69;;;17.49;71.23
6445;BME280;64733;51.424;5.484;2022-11-04T09:03:37;100423.28;;;17.48;71.61
6445;BME280;64733;51.424;5.484;2022-11-04T09:06:05;100427.69;;;17.49;70.48
6445;BME280;64733;51.424;5.484;2022-11-04T09:08:32;100432.25;;;17.49;70.20
6445;BME280;64733;51.424;5.484;2022-11-04T09:10:59;100432.25;;;17.49;70.33
6445;BME280;64733;51.424;5.484;2022-11-04T09:13:27;100432.09;;;17.50;70.76
6445;BME280;64733;51.424;5.484;2022-11-04T09:15:54;100418.06;;;17.39;71.06
6445;BME280;64733;51.424;5.484;2022-11-04T09:18:20;100442.25;;;17.48;71.50
6445;BME280;64733;51.424;5.484;2022-11-04T09:20:47;100443.06;;;17.49;71.76
6445;BME280;64733;51.424;5.484;2022-11-04T09:23:14;100448.47;;;17.49;71.69
6445;BME280;64733;51.424;5.484;2022-11-04T09:25:41;100449.53;;;17.48;71.70
6445;BME280;64733;51.424;5.484;2022-11-04T09:28:07;100455.97;;;17.47;71.86
6445;BME280;64733;51.424;5.484;2022-11-04T09:30:36;100455.28;;;17.45;71.83
6445;BME280;64733;51.424;5.484;2022-11-04T09:33:03;100457.97;;;17.45;71.89
6445;BME280;64733;51.424;5.484;2022-11-04T09:35:29;100469.63;;;17.45;72.03
6445;BME280;64733;51.424;5.484;2022-11-04T09:37:58;100472.34;;;17.45;72.01
6445;BME280;64733;51.424;5.484;2022-11-04T09:40:40;100476.94;;;17.45;71.97
6445;BME280;64733;51.424;5.484;2022-11-04T09:43:15;100475.22;;;17.44;72.09
6445;BME280;64733;51.424;5.484;2022-11-04T09:46:02;100491.47;;;17.44;72.16
6445;BME280;64733;51.424;5.484;2022-11-04T09:48:33;100484.22;;;17.44;72.10
6445;BME280;64733;51.424;5.484;2022-11-04T09:51:03;100491.28;;;17.45;72.03
6445;BME280;64733;51.424;5.484;2022-11-04T09:53:37;100488.78;;;17.44;72.30
6445;BME280;64733;51.424;5.484;2022-11-04T09:56:20;100492.34;;;17.44;72.27
6445;BME280;64733;51.424;5.484;2022-11-04T09:58:48;100489.63;;;17.44;72.06
6445;BME280;64733;51.424;5.484;2022-11-04T10:01:31;100495.03;;;17.44;72.29
6445;BME280;64733;51.424;5.484;2022-11-04T10:04:23;100502.31;;;17.44;72.27
6445;BME280;64733;51.424;5.484;2022-11-04T10:07:21;100478.38;;;17.33;72.37
6445;BME280;64733;51.424;5.484;2022-11-04T10:10:03;100504.00;;;17.45;72.27
6445;BME280;64733;51.424;5.484;2022-11-04T10:12:47;100494.19;;;17.44;72.28
6445;BME280;64733;51.424;5.484;2022-11-04T10:21:24;100513.16;;;17.44;71.99
6445;BME280;64733;51.424;5.484;2022-11-04T10:24:04;100515.19;;;17.42;71.33
6445;BME280;64733;51.424;5.484;2022-11-04T10:26:32;100519.59;;;17.43;71.50
6445;BME280;64733;51.424;5.484;2022-11-04T10:29:22;100520.44;;;17.43;71.37
6445;BME280;64733;51.424;5.484;2022-11-04T10:31:55;100520.09;;;17.38;71.60
6445;BME280;64733;51.424;5.484;2022-11-04T10:34:30;100531.09;;;17.45;71.05
6445;BME280;64733;51.424;5.484;2022-11-04T10:37:16;100534.81;;;17.44;70.67
6445;BME280;64733;51.424;5.484;2022-11-04T10:39:44;100543.59;;;17.46;70.94
6445;BME280;64733;51.424;5.484;2022-11-04T10:42:22;100544.31;;;17.48;70.85
6445;BME280;64733;51.424;5.484;2022-11-04T10:44:50;100540.75;;;17.47;70.43
6445;BME280;64733;51.424;5.484;2022-11-04T10:47:27;100544.50;;;17.46;70.32
6445;BME280;64733;51.424;5.484;2022-11-04T10:50:27;100540.56;;;17.49;70.09
6445;BME280;64733;51.424;5.484;2022-11-04T10:53:08;100536.19;;;17.48;70.12
6445;BME280;64733;51.424;5.484;2022-11-04T10:55:40;100536.84;;;17.50;70.20
6445;BME280;64733;51.424;5.484;2022-11-04T10:58:20;100534.31;;;17.48;70.52
6445;BME280;64733;51.424;5.484;2022-11-04T11:00:48;100535.16;;;17.49;70.38
6445;BME280;64733;51.424;5.484;2022-11-04T11:03:28;100544.13;;;17.49;70.52
6445;BME280;64733;51.424;5.484;2022-11-04T11:06:23;100539.88;;;17.55;70.36
6445;BME280;64733;51.424;5.484;2022-11-04T11:08:51;100532.09;;;17.52;70.52
6445;BME280;64733;51.424;5.484;2022-11-04T11:11:38;100528.72;;;17.50;70.16
6445;BME280;64733;51.424;5.484;2022-11-04T11:14:18;100532.28;;;17.50;69.94
6445;BME280;64733;51.424;5.484;2022-11-04T11:16:45;100545.47;;;17.53;69.92
6445;BME280;64733;51.424;5.484;2022-11-04T11:19:15;100545.09;;;17.56;70.44
6445;BME280;64733;51.424;5.484;2022-11-04T11:21:45;100548.28;;;17.60;70.35
6445;BME280;64733;51.424;5.484;2022-11-04T11:24:16;100548.97;;;17.62;70.61
6445;BME280;64733;51.424;5.484;2022-11-04T11:26:44;100545.41;;;17.61;70.74
6445;BME280;64733;51.424;5.484;2022-11-04T11:29:18;100548.09;;;17.61;70.71
6445;BME280;64733;51.424;5.484;2022-11-04T11:31:47;100546.25;;;17.62;70.73
6445;BME280;64733;51.424;5.484;2022-11-04T11:34:17;100547.94;;;17.63;70.63
6445;BME280;64733;51.424;5.484;2022-11-04T11:36:48;100536.56;;;17.67;70.41
6445;BME280;64733;51.424;5.484;2022-11-04T11:39:17;100541.81;;;17.69;70.67
6445;BME280;64733;51.424;5.484;2022-11-04T11:42:00;100545.00;;;17.72;70.58
6445;BME280;64733;51.424;5.484;2022-11-04T11:44:29;100546.19;;;17.70;70.66
6445;BME280;64733;51.424;5.484;2022-11-04T11:47:00;100551.78;;;17.68;71.01
6445;BME280;64733;51.424;5.484;2022-11-04T11:49:29;100551.00;;;17.60;71.18
6445;BME280;64733;51.424;5.484;2022-11-04T11:52:26;100565.53;;;17.67;70.77
6445;BME280;64733;51.424;5.484;2022-11-04T11:55:02;100563.66;;;17.67;70.41
6445;BME280;64733;51.424;5.484;2022-11-04T11:57:57;100567.19;;;17.68;70.77
6445;BME280;64733;51.424;5.484;2022-11-04T12:00:25;100567.88;;;17.70;70.62
6445;BME280;64733;51.424;5.484;2022-11-04T12:03:09;100570.88;;;17.75;70.54
6445;BME280;64733;51.424;5.484;2022-11-04T12:05:44;100569.38;;;17.72;71.14
6445;BME280;64733;51.424;5.484;2022-11-04T12:08:33;100574.25;;;17.77;71.11
6445;BME280;64733;51.424;5.484;2022-11-04T12:11:24;100573.75;;;17.81;70.69
6445;BME280;64733;51.424;5.484;2022-11-04T12:13:55;100586.06;;;17.84;70.99
6445;BME280;64733;51.424;5.484;2022-11-04T12:16:31;100567.03;;;17.69;71.21
6445;BME280;64733;51.424;5.484;2022-11-04T12:22:17;100578.31;;;17.81;71.41
6445;BME280;64733;51.424;5.484;2022-11-04T12:24:57;100579.97;;;17.82;71.38
6445;BME280;64733;51.424;5.484;2022-11-04T12:27:42;100579.97;;;17.82;71.36
6445;BME280;64733;51.424;5.484;2022-11-04T12:30:17;100589.13;;;17.81;71.73
6445;BME280;64733;51.424;5.484;2022-11-04T12:33:00;100593.72;;;17.80;71.51
6445;BME280;64733;51.424;5.484;2022-11-04T12:35:43;100603.88;;;17.78;71.79
6445;BME280;64733;51.424;5.484;2022-11-04T12:38:30;100610.31;;;17.77;71.85
6445;BME280;64733;51.424;5.484;2022-11-04T12:41:24;100605.09;;;17.76;72.05
6445;BME280;64733;51.424;5.484;2022-11-04T12:44:00;100604.25;;;17.75;71.82
6445;BME280;64733;51.424;5.484;2022-11-04T12:46:36;100609.84;;;17.74;71.92
6445;BME280;64733;51.424;5.484;2022-11-04T12:55:33;100617.28;;;17.72;71.93
6445;BME280;64733;51.424;5.484;2022-11-04T12:58:10;100623.75;;;17.71;72.11
6445;BME280;64733;51.424;5.484;2022-11-04T13:00:43;100628.31;;;17.70;72.09
6445;BME280;64733;51.424;5.484;2022-11-04T13:03:23;100635.59;;;17.70;72.31
6445;BME280;64733;51.424;5.484;2022-11-04T13:05:58;100629.50;;;17.68;72.17
6445;BME280;64733;51.424;5.484;2022-11-04T13:08:31;100628.69;;;17.67;72.46
6445;BME280;64733;51.424;5.484;2022-11-04T13:11:07;100630.72;;;17.65;72.40
6445;BME280;64733;51.424;5.484;2022-11-04T13:14:01;100635.28;;;17.65;72.51
6445;BME280;64733;51.424;5.484;2022-11-04T13:16:31;100640.03;;;17.63;72.62
6445;BME280;64733;51.424;5.484;2022-11-04T13:18:59;100634.59;;;17.63;72.45
6445;BME280;64733;51.424;5.484;2022-11-04T13:21:30;100618.09;;;17.50;72.67
6445;BME280;64733;51.424;5.484;2022-11-04T13:24:03;100644.78;;;17.61;72.73
6445;BME280;64733;51.424;5.484;2022-11-04T13:26:30;100653.94;;;17.60;72.63
6445;BME280;64733;51.424;5.484;2022-11-04T13:29:03;100659.34;;;17.60;72.88
6445;BME280;64733;51.424;5.484;2022-11-04T13:31:36;100664.75;;;17.60;72.68
6445;BME280;64733;51.424;5.484;2022-11-04T13:34:13;100672.88;;;17.60;72.61
6445;BME280;64733;51.424;5.484;2022-11-04T13:37:07;100680.16;;;17.59;72.67
6445;BME280;64733;51.424;5.484;2022-11-04T13:39:41;100682.06;;;17.59;72.72
6445;BME280;64733;51.424;5.484;2022-11-04T13:42:35;100683.91;;;17.58;72.52
6445;BME280;64733;51.424;5.484;2022-11-04T13:45:11;100691.19;;;17.58;72.73
6445;BME280;64733;51.424;5.484;2022-11-04T13:47:44;100686.63;;;17.58;72.61
6445;BME280;64733;51.424;5.484;2022-11-04T13:50:34;100692.22;;;17.57;72.77
6445;BME280;64733;51.424;5.484;2022-11-04T13:53:03;100692.38;;;17.55;72.89
6445;BME280;64733;51.424;5.484;2022-11-04T13:55:31;100689.69;;;17.55;72.69
6445;BME280;64733;51.424;5.484;2022-11-04T13:58:22;100693.38;;;17.54;72.95
6445;BME280;64733;51.424;5.484;2022-11-04T14:01:10;100700.69;;;17.54;72.62
6445;BME280;64733;51.424;5.484;2022-11-04T14:04:18;100701.34;;;17.56;72.73
6445;BME280;64733;51.424;5.484;2022-11-04T14:06:53;100704.91;;;17.56;72.51
6445;BME280;64733;51.424;5.484;2022-11-04T14:09:33;100699.34;;;17.50;72.57
6445;BME280;64733;51.424;5.484;2022-11-04T14:12:30;100712.84;;;17.58;72.90
6445;BME280;64733;51.424;5.484;2022-11-04T14:15:22;100716.22;;;17.60;72.65
6445;BME280;64733;51.424;5.484;2022-11-04T14:18:27;100714.69;;;17.57;72.75
6445;BME280;64733;51.424;5.484;2022-11-04T14:21:05;100727.41;;;17.57;73.15
6445;BME280;64733;51.424;5.484;2022-11-04T14:23:32;100726.75;;;17.55;73.04
6445;BME280;64733;51.424;5.484;2022-11-04T14:26:01;100734.88;;;17.55;73.11
6445;BME280;64733;51.424;5.484;2022-11-04T14:28:37;100736.72;;;17.54;72.94
6445;BME280;64733;51.424;5.484;2022-11-04T14:31:07;100738.59;;;17.54;72.86
6445;BME280;64733;51.424;5.484;2022-11-04T14:33:48;100745.88;;;17.53;72.91
6445;BME280;64733;51.424;5.484;2022-11-04T14:36:27;100749.59;;;17.52;72.97
6445;BME280;64733;51.424;5.484;2022-11-04T14:38:59;100759.59;;;17.52;72.86
6445;BME280;64733;51.424;5.484;2022-11-04T14:44:27;100764.16;;;17.51;72.93
6445;BME280;64733;51.424;5.484;2022-11-04T14:46:57;100775.19;;;17.50;73.00
6445;BME280;64733;51.424;5.484;2022-11-04T14:49:38;100758.38;;;17.38;72.96
6445;BME280;64733;51.424;5.484;2022-11-04T14:52:26;100782.44;;;17.49;72.97
6445;BME280;64733;51.424;5.484;2022-11-04T14:54:56;100786.19;;;17.48;72.93
6445;BME280;64733;51.424;5.484;2022-11-04T14:57:23;100788.03;;;17.48;73.05
6445;BME280;64733;51.424;5.484;2022-11-04T14:59:50;100792.59;;;17.47;73.18
6445;BME280;64733;51.424;5.484;2022-11-04T15:02:20;100791.78;;;17.47;73.13
6445;BME280;64733;51.424;5.484;2022-11-04T15:04:52;100791.38;;;17.42;73.11
6445;BME280;64733;51.424;5.484;2022-11-04T15:07:24;100803.56;;;17.46;73.16
6445;BME280;64733;51.424;5.484;2022-11-04T15:09:51;100811.69;;;17.46;73.09
6445;BME280;64733;51.424;5.484;2022-11-04T15:12:18;100810.03;;;17.45;72.97
6445;BME280;64733;51.424;5.484;2022-11-04T15:15:33;100822.72;;;17.44;73.10
6445;BME280;64733;51.424;5.484;2022-11-04T15:18:04;100827.25;;;17.44;73.07
6445;BME280;64733;51.424;5.484;2022-11-04T15:20:36;100833.72;;;17.43;73.13
6445;BME280;64733;51.424;5.484;2022-11-04T15:23:11;100836.41;;;17.43;73.13
6445;BME280;64733;51.424;5.484;2022-11-04T15:25:44;100838.28;;;17.42;73.15
6445;BME280;64733;51.424;5.484;2022-11-04T15:28:24;100849.09;;;17.42;72.99
6445;BME280;64733;51.424;5.484;2022-11-04T15:31:13;100847.44;;;17.41;73.23
6445;BME280;64733;51.424;5.484;2022-11-04T15:33:43;100853.84;;;17.40;72.91
6445;BME280;64733;51.424;5.484;2022-11-04T15:36:15;100864.50;;;17.42;72.17
6445;BME280;64733;51.424;5.484;2022-11-04T15:38:45;100857.06;;;17.44;71.72
6445;BME280;64733;51.424;5.484;2022-11-04T15:41:18;100861.66;;;17.43;72.42
6445;BME280;64733;51.424;5.484;2022-11-04T15:44:04;100853.53;;;17.43;72.51
6445;BME280;64733;51.424;5.484;2022-11-04T15:46:32;100848.25;;;17.42;72.64
6445;BME280;64733;51.424;5.484;2022-11-04T15:49:03;100848.09;;;17.43;72.67
6445;BME280;64733;51.424;5.484;2022-11-04T15:51:35;100853.53;;;17.43;72.48
6445;BME280;64733;51.424;5.484;2022-11-04T15:54:24;100831.16;;;17.33;72.57
6445;BME280;64733;51.424;5.484;2022-11-04T15:56:57;100852.16;;;17.39;72.68
6445;BME280;64733;51.424;5.484;2022-11-04T15:59:45;100860.63;;;17.44;72.73
6445;BME280;64733;51.424;5.484;2022-11-04T16:02:18;100848.28;;;17.34;72.63
6445;BME280;64733;51.424;5.484;2022-11-04T16:05:18;100868.75;;;17.44;72.38
6445;BME280;64733;51.424;5.484;2022-11-04T16:08:13;100871.44;;;17.44;72.85
6445;BME280;64733;51.424;5.484;2022-11-04T16:11:11;100876.88;;;17.44;72.93
6445;BME280;64733;51.424;5.484;2022-11-04T16:13:39;100877.72;;;17.45;72.83
6445;BME280;64733;51.424;5.484;2022-11-04T16:16:16;100878.72;;;17.44;72.86
6445;BME280;64733;51.424;5.484;2022-11-04T16:19:01;100883.13;;;17.45;72.89
6445;BME280;64733;51.424;5.484;2022-11-04T16:21:29;100887.69;;;17.44;72.90
6445;BME280;64733;51.424;5.484;2022-11-04T16:24:01;100899.56;;;17.43;72.98
6445;BME280;64733;51.424;5.484;2022-11-04T16:26:35;100908.50;;;17.44;72.84
6445;BME280;64733;51.424;5.484;2022-11-04T16:29:06;100912.25;;;17.43;73.02
6445;BME280;64733;51.424;5.484;2022-11-04T16:31:35;100913.09;;;17.43;73.07
6445;BME280;64733;51.424;5.484;2022-11-04T16:34:01;100915.94;;;17.42;72.99
6445;BME280;64733;51.424;5.484;2022-11-04T16:36:32;100915.31;;;17.48;73.12
6445;BME280;64733;51.424;5.484;2022-11-04T16:39:02;100923.44;;;17.56;72.90
6445;BME280;64733;51.424;5.484;2022-11-04T16:41:40;100931.25;;;17.59;72.81
6445;BME280;64733;51.424;5.484;2022-11-04T16:44:17;100939.38;;;17.67;72.25
6445;BME280;64733;51.424;5.484;2022-11-04T16:46:44;100944.47;;;17.78;72.29
6445;BME280;64733;51.424;5.484;2022-11-04T16:49:13;100946.28;;;17.85;72.02
6445;BME280;64733;51.424;5.484;2022-11-04T16:51:40;100946.47;;;17.92;71.79
6445;BME280;64733;51.424;5.484;2022-11-04T16:54:08;100937.66;;;17.90;71.99
6445;BME280;64733;51.424;5.484;2022-11-04T16:56:35;100958.31;;;18.07;72.04
6445;BME280;64733;51.424;5.484;2022-11-04T16:59:03;100956.94;;;18.11;71.82
6445;BME280;64733;51.424;5.484;2022-11-04T17:01:30;100949.47;;;18.21;71.93
6445;BME280;64733;51.424;5.484;2022-11-04T17:03:58;100954.69;;;18.31;71.73
6445;BME280;64733;51.424;5.484;2022-11-04T17:06:25;100956.03;;;18.35;71.84
6445;BME280;64733;51.424;5.484;2022-11-04T17:08:53;100945.41;;;18.25;71.73
6445;BME280;64733;51.424;5.484;2022-11-04T17:11:21;100966.22;;;18.49;71.80
6445;BME280;64733;51.424;5.484;2022-11-04T17:13:48;100972.94;;;18.61;71.48
6445;BME280;64733;51.424;5.484;2022-11-04T17:16:15;100975.84;;;18.59;72.43
6445;BME280;64733;51.424;5.484;2022-11-04T17:18:42;100982.94;;;18.60;73.03
6445;BME280;64733;51.424;5.484;2022-11-04T17:21:19;100988.03;;;18.63;73.43
6445;BME280;64733;51.424;5.484;2022-11-04T17:23:46;100993.78;;;18.68;73.34
6445;BME280;64733;51.424;5.484;2022-11-04T17:26:13;100996.31;;;18.70;73.27
6445;BME280;64733;51.424;5.484;2022-11-04T17:28:41;101006.81;;;18.73;73.25
6445;BME280;64733;51.424;5.484;2022-11-04T17:31:10;101002.56;;;18.78;73.22
6445;BME280;64733;51.424;5.484;2022-11-04T17:33:41;101004.94;;;18.81;72.80
6445;BME280;64733;51.424;5.484;2022-11-04T17:36:09;101007.47;;;18.83;73.04
6445;BME280;64733;51.424;5.484;2022-11-04T17:38:37;101012.75;;;18.84;72.79
6445;BME280;64733;51.424;5.484;2022-11-04T17:41:03;101011.72;;;18.85;72.52
6445;BME280;64733;51.424;5.484;2022-11-04T17:43:49;101012.38;;;18.87;72.80
6445;BME280;64733;51.424;5.484;2022-11-04T17:46:25;101007.63;;;18.89;72.63
6445;BME280;64733;51.424;5.484;2022-11-04T17:49:08;101017.44;;;18.90;72.68
6445;BME280;64733;51.424;5.484;2022-11-04T17:51:37;101015.22;;;18.94;72.62
6445;BME280;64733;51.424;5.484;2022-11-04T17:54:04;101011.16;;;18.90;72.54
6445;BME280;64733;51.424;5.484;2022-11-04T17:56:31;101019.81;;;18.93;71.94
6445;BME280;64733;51.424;5.484;2022-11-04T17:59:00;101017.44;;;18.98;71.80
6445;BME280;64733;51.424;5.484;2022-11-04T18:01:29;101029.47;;;18.96;71.79
6445;BME280;64733;51.424;5.484;2022-11-04T18:03:56;101036.94;;;19.02;71.75
6445;BME280;64733;51.424;5.484;2022-11-04T18:06:24;101032.63;;;19.07;71.54
6445;BME280;64733;51.424;5.484;2022-11-04T18:08:51;101035.22;;;19.01;71.93
6445;BME280;64733;51.424;5.484;2022-11-04T18:11:19;101036.41;;;19.06;71.50
6445;BME280;64733;51.424;5.484;2022-11-04T18:14:05;101036.72;;;19.12;71.19
6445;BME280;64733;51.424;5.484;2022-11-04T18:16:32;101045.56;;;19.05;71.36
6445;BME280;64733;51.424;5.484;2022-11-04T18:18:59;101042.19;;;19.03;71.25
6445;BME280;64733;51.424;5.484;2022-11-04T18:21:27;101052.19;;;19.03;71.66
6445;BME280;64733;51.424;5.484;2022-11-04T18:23:59;101042.38;;;19.02;71.76
6445;BME280;64733;51.424;5.484;2022-11-04T18:26:25;101047.63;;;19.03;71.54
6445;BME280;64733;51.424;5.484;2022-11-04T18:28:52;101049.47;;;19.03;71.58
6445;BME280;64733;51.424;5.484;2022-11-04T18:31:24;101055.09;;;19.01;71.87
6445;BME280;64733;51.424;5.484;2022-11-04T18:33:51;101060.34;;;19.03;71.99
6445;BME280;64733;51.424;5.484;2022-11-04T18:36:18;101066.63;;;19.03;72.12
6445;BME280;64733;51.424;5.484;2022-11-04T18:38:45;101071.19;;;19.03;72.04
6445;BME280;64733;51.424;5.484;2022-11-04T18:41:12;101080.19;;;19.03;72.05
6445;BME280;64733;51.424;5.484;2022-11-04T18:43:39;101070.34;;;19.02;72.08
6445;BME280;64733;51.424;5.484;2022-11-04T18:46:07;101070.53;;;19.01;72.14
6445;BME280;64733;51.424;5.484;2022-11-04T18:48:36;101070.53;;;19.01;71.92
6445;BME280;64733;51.424;5.484;2022-11-04T18:51:04;101073.06;;;19.02;72.15
6445;BME280;64733;51.424;5.484;2022-11-04T18:53:32;101069.66;;;19.00;72.45
6445;BME280;64733;51.424;5.484;2022-11-04T18:56:03;101078.66;;;19.01;72.17
6445;BME280;64733;51.424;5.484;2022-11-04T18:58:31;101071.72;;;18.98;72.16
6445;BME280;64733;51.424;5.484;2022-11-04T19:00:59;101079.53;;;19.01;72.08
6445;BME280;64733;51.424;5.484;2022-11-04T19:03:26;101083.41;;;18.99;71.97
6445;BME280;64733;51.424;5.484;2022-11-04T19:05:54;101085.94;;;19.00;71.88
6445;BME280;64733;51.424;5.484;2022-11-04T19:08:20;101092.41;;;18.99;71.88
6445;BME280;64733;51.424;5.484;2022-11-04T19:10:47;101086.81;;;19.01;72.06
6445;BME280;64733;51.424;5.484;2022-11-04T19:13:14;101097.00;;;18.99;72.39
6445;BME280;64733;51.424;5.484;2022-11-04T19:15:48;101098.88;;;18.98;72.16
6445;BME280;64733;51.424;5.484;2022-11-04T19:18:15;101093.81;;;18.87;72.31
6445;BME280;64733;51.424;5.484;2022-11-04T19:20:43;101115.19;;;18.98;72.33
6445;BME280;64733;51.424;5.484;2022-11-04T19:23:11;101112.59;;;18.97;72.38
6445;BME280;64733;51.424;5.484;2022-11-04T19:25:38;101126.03;;;18.98;72.33
6445;BME280;64733;51.424;5.484;2022-11-04T19:28:06;101114.50;;;18.96;72.22
6445;BME280;64733;51.424;5.484;2022-11-04T19:30:34;101126.19;;;18.97;72.26
6445;BME280;64733;51.424;5.484;2022-11-04T19:33:00;101133.50;;;18.96;72.38
6445;BME280;64733;51.424;5.484;2022-11-04T19:35:27;101124.50;;;18.96;72.51
6445;BME280;64733;51.424;5.484;2022-11-04T19:37:54;101134.31;;;18.97;72.67
6445;BME280;64733;51.424;5.484;2022-11-04T19:40:22;101130.78;;;18.96;72.46
6445;BME280;64733;51.424;5.484;2022-11-04T19:42:49;101132.47;;;18.97;72.34
6445;BME280;64733;51.424;5.484;2022-11-04T19:45:36;101137.03;;;18.97;72.27
6445;BME280;64733;51.424;5.484;2022-11-04T19:48:03;101132.66;;;18.96;72.59
6445;BME280;64733;51.424;5.484;2022-11-04T19:50:30;101134.50;;;18.95;72.40
6445;BME280;64733;51.424;5.484;2022-11-04T19:52:57;101144.53;;;18.95;72.17
6445;BME280;64733;51.424;5.484;2022-11-04T19:55:25;101155.53;;;18.93;72.42
6445;BME280;64733;51.424;5.484;2022-11-04T19:57:51;101152.00;;;18.93;72.05
6445;BME280;64733;51.424;5.484;2022-11-04T20:00:18;101159.28;;;18.92;72.15
6445;BME280;64733;51.424;5.484;2022-11-04T20:02:48;101160.31;;;18.91;71.90
6445;BME280;64733;51.424;5.484;2022-11-04T20:05:15;101163.88;;;18.92;72.01
6445;BME280;64733;51.424;5.484;2022-11-04T20:07:45;101164.91;;;18.91;72.20
6445;BME280;64733;51.424;5.484;2022-11-04T20:10:12;101175.06;;;18.89;71.92
6445;BME280;64733;51.424;5.484;2022-11-04T20:12:40;101171.00;;;18.85;71.85
6445;BME280;64733;51.424;5.484;2022-11-04T20:15:24;101183.22;;;18.89;71.48
6445;BME280;64733;51.424;5.484;2022-11-04T20:17:52;101174.22;;;18.88;71.40
6445;BME280;64733;51.424;5.484;2022-11-04T20:20:19;101180.50;;;18.89;71.33
6445;BME280;64733;51.424;5.484;2022-11-04T20:22:46;101166.59;;;18.76;71.61
6445;BME280;64733;51.424;5.484;2022-11-04T20:25:13;101193.56;;;18.85;71.78
6445;BME280;64733;51.424;5.484;2022-11-04T20:27:41;101187.09;;;18.86;71.40
6445;BME280;64733;51.424;5.484;2022-11-04T20:30:08;101193.56;;;18.85;71.34
6445;BME280;64733;51.424;5.484;2022-11-04T20:32:35;101188.31;;;18.84;71.16
6445;BME280;64733;51.424;5.484;2022-11-04T20:35:02;101190.00;;;18.85;71.29
6445;BME280;64733;51.424;5.484;2022-11-04T20:37:29;101205.47;;;18.84;71.34
6445;BME280;64733;51.424;5.484;2022-11-04T20:39:56;101208.16;;;18.84;71.18
6445;BME280;64733;51.424;5.484;2022-11-04T20:42:22;101212.75;;;18.84;70.82
6445;BME280;64733;51.424;5.484;2022-11-04T20:44:50;101219.84;;;18.85;71.07